^^
Saratoga-Weather Station Historical Data
Daily Summary for September 8, 2021 Units:  Both    English   Metric
Daily Weekly Monthly Yearly Custom
  High: Low: Average:
Temperature: 35.8 °F /  2.1 °C 31.8 °F /  -0.1 °C 33.8 °F /  1 °C
Dew Point: 32.5 °F /  0.3 °C 28.8 °F /  -1.8 °C 30.7 °F /  -0.7 °C
Humidity: 93% 82% 89%
Wind Speed: 11mph /  17.7km/h - 3.6mph /  5.8km/h
Wind Gust: 15mph /  24.1km/h - -
Wind- - West
Pressure: 30.1 in /  1019.0 hPa 29.9 in /  1013.9 hPa -
Precipitation: 0 in /  0.0 mm    
Historical Graphs
 
 
Tabular Data for September 8, 2021
Time Temperature Dew Point Pressure Wind Wind Speed Wind Gust Humidity Rainfall Rate (Hourly) solar
00:04 34.2 °F /  1.2 °C 32.4 °F /  0.2 °C 30in /  1014.2hPa West 2mph /  3.2km/h 8mph /  12.9km/h 93% 0in /  0.0mm 0 W/m2
00:09 34.2 °F /  1.2 °C 32.4 °F /  0.2 °C 30in /  1014.2hPa West 6mph /  9.7km/h 12mph /  19.3km/h 93% 0in /  0.0mm 0 W/m2
00:14 34.2 °F /  1.2 °C 32.4 °F /  0.2 °C 30in /  1014.2hPa West 6mph /  9.7km/h 8mph /  12.9km/h 93% 0in /  0.0mm 0 W/m2
00:19 34.2 °F /  1.2 °C 32.4 °F /  0.2 °C 30in /  1014.2hPa WNW 2mph /  3.2km/h 12mph /  19.3km/h 93% 0in /  0.0mm 0 W/m2
00:24 34.2 °F /  1.2 °C 32.4 °F /  0.2 °C 30in /  1014.2hPa WSW 6.9mph /  11.1km/h 8mph /  12.9km/h 93% 0in /  0.0mm 0 W/m2
00:29 34.2 °F /  1.2 °C 32.4 °F /  0.2 °C 30in /  1014.2hPa West 4mph /  6.4km/h 10mph /  16.1km/h 93% 0in /  0.0mm 0 W/m2
00:34 34.3 °F /  1.3 °C 32.5 °F /  0.3 °C 30in /  1014.2hPa West 6mph /  9.7km/h 9mph /  14.5km/h 93% 0in /  0.0mm 0 W/m2
00:39 34.2 °F /  1.2 °C 32.4 °F /  0.2 °C 29.9in /  1013.9hPa West 2.9mph /  4.7km/h 8mph /  12.9km/h 93% 0in /  0.0mm 0 W/m2
00:44 34.2 °F /  1.2 °C 32.4 °F /  0.2 °C 29.9in /  1013.9hPa WSW 4mph /  6.4km/h 8mph /  12.9km/h 93% 0in /  0.0mm 0 W/m2
00:49 34.3 °F /  1.3 °C 32.5 °F /  0.3 °C 29.9in /  1013.9hPa West 6.9mph /  11.1km/h 9mph /  14.5km/h 93% 0in /  0.0mm 0 W/m2
00:54 34.3 °F /  1.3 °C 32.5 °F /  0.3 °C 29.9in /  1013.9hPa WNW 6.9mph /  11.1km/h 9mph /  14.5km/h 93% 0in /  0.0mm 0 W/m2
00:59 34.3 °F /  1.3 °C 32.5 °F /  0.3 °C 29.9in /  1013.9hPa West 2mph /  3.2km/h 7mph /  11.3km/h 93% 0in /  0.0mm 0 W/m2
01:04 34.3 °F /  1.3 °C 32.5 °F /  0.3 °C 29.9in /  1013.9hPa SW 4mph /  6.4km/h 7mph /  11.3km/h 93% 0in /  0.0mm 0 W/m2
01:09 34.3 °F /  1.3 °C 32.5 °F /  0.3 °C 29.9in /  1013.9hPa West 2.9mph /  4.7km/h 6mph /  9.7km/h 93% 0in /  0.0mm 0 W/m2
01:14 34.3 °F /  1.3 °C 32.5 °F /  0.3 °C 29.9in /  1013.9hPa WNW 4.9mph /  7.9km/h 8mph /  12.9km/h 93% 0in /  0.0mm 0 W/m2
01:19 34.3 °F /  1.3 °C 32.5 °F /  0.3 °C 29.9in /  1013.9hPa West 4mph /  6.4km/h 6mph /  9.7km/h 93% 0in /  0.0mm 0 W/m2
01:24 34.3 °F /  1.3 °C 32.5 °F /  0.3 °C 29.9in /  1013.9hPa West 4mph /  6.4km/h 8mph /  12.9km/h 93% 0in /  0.0mm 0 W/m2
01:29 34.2 °F /  1.2 °C 32.4 °F /  0.2 °C 29.9in /  1013.9hPa SW 4mph /  6.4km/h 8mph /  12.9km/h 93% 0in /  0.0mm 0 W/m2
01:34 34.3 °F /  1.3 °C 32.5 °F /  0.3 °C 29.9in /  1013.9hPa West 6.9mph /  11.1km/h 8mph /  12.9km/h 93% 0in /  0.0mm 0 W/m2
01:39 34.3 °F /  1.3 °C 32.5 °F /  0.3 °C 29.9in /  1013.9hPa West 10.1mph /  16.3km/h 10mph /  16.1km/h 93% 0in /  0.0mm 0 W/m2
01:44 34.3 °F /  1.3 °C 32.5 °F /  0.3 °C 29.9in /  1013.9hPa WNW 6.9mph /  11.1km/h 11mph /  17.7km/h 93% 0in /  0.0mm 0 W/m2
01:49 34.3 °F /  1.3 °C 32.5 °F /  0.3 °C 29.9in /  1013.9hPa WSW 2.9mph /  4.7km/h 5mph /  8km/h 93% 0in /  0.0mm 0 W/m2
01:54 34.3 °F /  1.3 °C 32.5 °F /  0.3 °C 29.9in /  1013.9hPa WNW 2.9mph /  4.7km/h 11mph /  17.7km/h 93% 0in /  0.0mm 0 W/m2
01:59 34.3 °F /  1.3 °C 32.5 °F /  0.3 °C 29.9in /  1013.9hPa WNW 4mph /  6.4km/h 5mph /  8km/h 93% 0in /  0.0mm 0 W/m2
02:04 34.3 °F /  1.3 °C 32.5 °F /  0.3 °C 29.9in /  1013.9hPa West 6.9mph /  11.1km/h 7mph /  11.3km/h 93% 0in /  0.0mm 0 W/m2
02:09 34.3 °F /  1.3 °C 32.5 °F /  0.3 °C 30in /  1014.2hPa WNW 4mph /  6.4km/h 8mph /  12.9km/h 93% 0in /  0.0mm 0 W/m2
02:14 34.3 °F /  1.3 °C 32.5 °F /  0.3 °C 30in /  1014.2hPa West 6mph /  9.7km/h 8mph /  12.9km/h 93% 0in /  0.0mm 0 W/m2
02:19 34.3 °F /  1.3 °C 32.5 °F /  0.3 °C 29.9in /  1013.9hPa West 4mph /  6.4km/h 9mph /  14.5km/h 93% 0in /  0.0mm 0 W/m2
02:24 34.3 °F /  1.3 °C 32.5 °F /  0.3 °C 30in /  1014.2hPa SSW 4mph /  6.4km/h 10mph /  16.1km/h 93% 0in /  0.0mm 0 W/m2
02:29 34.3 °F /  1.3 °C 32.5 °F /  0.3 °C 30in /  1014.2hPa WNW 4mph /  6.4km/h 9mph /  14.5km/h 93% 0in /  0.0mm 0 W/m2
02:34 34.3 °F /  1.3 °C 32.5 °F /  0.3 °C 29.9in /  1013.9hPa WSW 4mph /  6.4km/h 10mph /  16.1km/h 93% 0in /  0.0mm 0 W/m2
02:39 34.3 °F /  1.3 °C 32.5 °F /  0.3 °C 30in /  1014.2hPa West 4mph /  6.4km/h 8mph /  12.9km/h 93% 0in /  0.0mm 0 W/m2
02:44 34.3 °F /  1.3 °C 32.5 °F /  0.3 °C 30in /  1014.2hPa West 2mph /  3.2km/h 7mph /  11.3km/h 93% 0in /  0.0mm 0 W/m2
02:49 34.3 °F /  1.3 °C 32.5 °F /  0.3 °C 30in /  1014.2hPa West 2.9mph /  4.7km/h 9mph /  14.5km/h 93% 0in /  0.0mm 0 W/m2
02:54 34.2 °F /  1.2 °C 32.4 °F /  0.2 °C 30in /  1014.2hPa West 2.9mph /  4.7km/h 5mph /  8km/h 93% 0in /  0.0mm 0 W/m2
02:59 34.2 °F /  1.2 °C 32.4 °F /  0.2 °C 30in /  1014.2hPa NW 6.9mph /  11.1km/h 9mph /  14.5km/h 93% 0in /  0.0mm 0 W/m2
03:04 34.3 °F /  1.3 °C 32.5 °F /  0.3 °C 30in /  1014.2hPa West 8.9mph /  14.3km/h 9mph /  14.5km/h 93% 0in /  0.0mm 0 W/m2
03:09 34.3 °F /  1.3 °C 32.5 °F /  0.3 °C 30in /  1014.2hPa WNW 2mph /  3.2km/h 6mph /  9.7km/h 93% 0in /  0.0mm 0 W/m2
03:14 34.3 °F /  1.3 °C 32.5 °F /  0.3 °C 30in /  1014.6hPa WNW 4mph /  6.4km/h 10mph /  16.1km/h 93% 0in /  0.0mm 0 W/m2
03:19 34.3 °F /  1.3 °C 32.5 °F /  0.3 °C 30in /  1014.2hPa West 6mph /  9.7km/h 10mph /  16.1km/h 93% 0in /  0.0mm 0 W/m2
03:24 34.3 °F /  1.3 °C 32.5 °F /  0.3 °C 30in /  1014.2hPa SW 2.9mph /  4.7km/h 10mph /  16.1km/h 93% 0in /  0.0mm 0 W/m2
03:29 34.3 °F /  1.3 °C 32.2 °F /  0.1 °C 30in /  1014.6hPa West 8.9mph /  14.3km/h 10mph /  16.1km/h 92% 0in /  0.0mm 0 W/m2
03:34 34.3 °F /  1.3 °C 32.2 °F /  0.1 °C 30in /  1014.6hPa WSW 6.9mph /  11.1km/h 11mph /  17.7km/h 92% 0in /  0.0mm 0 W/m2
03:39 34.3 °F /  1.3 °C 32.2 °F /  0.1 °C 30in /  1014.6hPa WSW 6.9mph /  11.1km/h 8mph /  12.9km/h 92% 0in /  0.0mm 0 W/m2
03:44 34.3 °F /  1.3 °C 32.2 °F /  0.1 °C 30in /  1014.6hPa SW 4.9mph /  7.9km/h 11mph /  17.7km/h 92% 0in /  0.0mm 0 W/m2
03:49 34.3 °F /  1.3 °C 32.2 °F /  0.1 °C 30in /  1014.6hPa WNW 2.9mph /  4.7km/h 8mph /  12.9km/h 92% 0in /  0.0mm 0 W/m2
03:54 34.3 °F /  1.3 °C 32.2 °F /  0.1 °C 30in /  1014.6hPa WSW 2.9mph /  4.7km/h 9mph /  14.5km/h 92% 0in /  0.0mm 0 W/m2
03:59 34.3 °F /  1.3 °C 32.2 °F /  0.1 °C 30in /  1014.6hPa West 6.9mph /  11.1km/h 9mph /  14.5km/h 92% 0in /  0.0mm 0 W/m2
04:04 34.3 °F /  1.3 °C 32.2 °F /  0.1 °C 30in /  1014.6hPa West 2mph /  3.2km/h 11mph /  17.7km/h 92% 0in /  0.0mm 0 W/m2
04:09 34.3 °F /  1.3 °C 32 °F /  0 °C 30in /  1014.6hPa West 4mph /  6.4km/h 9mph /  14.5km/h 91% 0in /  0.0mm 0 W/m2
04:14 34.3 °F /  1.3 °C 32 °F /  0 °C 30in /  1014.6hPa WSW 4mph /  6.4km/h 11mph /  17.7km/h 91% 0in /  0.0mm 0 W/m2
04:19 34.2 °F /  1.2 °C 31.8 °F /  -0.1 °C 30in /  1014.6hPa West 2.9mph /  4.7km/h 8mph /  12.9km/h 91% 0in /  0.0mm 0 W/m2
04:24 34.2 °F /  1.2 °C 31.8 °F /  -0.1 °C 30in /  1014.6hPa West 8.1mph /  13km/h 13mph /  20.9km/h 91% 0in /  0.0mm 0 W/m2
04:29 34.2 °F /  1.2 °C 31.8 °F /  -0.1 °C 30in /  1014.6hPa WNW 2mph /  3.2km/h 10mph /  16.1km/h 91% 0in /  0.0mm 0 W/m2
04:34 34 °F /  1.1 °C 31.6 °F /  -0.2 °C 30in /  1014.6hPa WSW 2.9mph /  4.7km/h 13mph /  20.9km/h 91% 0in /  0.0mm 0 W/m2
04:39 34 °F /  1.1 °C 31.6 °F /  -0.2 °C 30in /  1014.6hPa WNW 4mph /  6.4km/h 14mph /  22.5km/h 91% 0in /  0.0mm 0 W/m2
04:44 34 °F /  1.1 °C 31.6 °F /  -0.2 °C 30in /  1014.6hPa West 6mph /  9.7km/h 9mph /  14.5km/h 91% 0in /  0.0mm 0 W/m2
04:49 33.8 °F /  1 °C 31.5 °F /  -0.3 °C 30in /  1014.6hPa WSW 4mph /  6.4km/h 11mph /  17.7km/h 91% 0in /  0.0mm 0 W/m2
04:55 33.8 °F /  1 °C 31.5 °F /  -0.3 °C 30in /  1014.6hPa West 6mph /  9.7km/h 10mph /  16.1km/h 91% 0in /  0.0mm 0 W/m2
05:00 33.6 °F /  0.9 °C 31.3 °F /  -0.4 °C 30in /  1014.6hPa West 6.9mph /  11.1km/h 10mph /  16.1km/h 91% 0in /  0.0mm 0 W/m2
05:05 33.6 °F /  0.9 °C 31.3 °F /  -0.4 °C 30in /  1014.6hPa West 2.9mph /  4.7km/h 10mph /  16.1km/h 91% 0in /  0.0mm 0 W/m2
05:10 33.6 °F /  0.9 °C 31.3 °F /  -0.4 °C 30in /  1014.6hPa West 4mph /  6.4km/h 9mph /  14.5km/h 91% 0in /  0.0mm 0 W/m2
05:15 33.6 °F /  0.9 °C 31.3 °F /  -0.4 °C 30in /  1014.6hPa SW 4.9mph /  7.9km/h 8mph /  12.9km/h 91% 0in /  0.0mm 0 W/m2
05:20 33.6 °F /  0.9 °C 31.3 °F /  -0.4 °C 30in /  1014.6hPa WNW 8.9mph /  14.3km/h 9mph /  14.5km/h 91% 0in /  0.0mm 0 W/m2
05:25 33.6 °F /  0.9 °C 30.9 °F /  -0.6 °C 30in /  1014.6hPa WNW 4mph /  6.4km/h 10mph /  16.1km/h 90% 0in /  0.0mm 0 W/m2
05:30 33.4 °F /  0.8 °C 30.7 °F /  -0.7 °C 30in /  1014.6hPa WNW 8.1mph /  13km/h 10mph /  16.1km/h 90% 0in /  0.0mm 0 W/m2
05:35 33.4 °F /  0.8 °C 30.7 °F /  -0.7 °C 30in /  1014.2hPa NW 8.9mph /  14.3km/h 10mph /  16.1km/h 90% 0in /  0.0mm 0 W/m2
05:40 33.4 °F /  0.8 °C 30.7 °F /  -0.7 °C 30in /  1014.6hPa West 2.9mph /  4.7km/h 8mph /  12.9km/h 90% 0in /  0.0mm 0 W/m2
05:45 33.4 °F /  0.8 °C 30.7 °F /  -0.7 °C 30in /  1014.6hPa West 2mph /  3.2km/h 8mph /  12.9km/h 90% 0in /  0.0mm 0 W/m2
05:50 33.4 °F /  0.8 °C 30.7 °F /  -0.7 °C 30in /  1014.6hPa WSW 4mph /  6.4km/h 7mph /  11.3km/h 90% 0in /  0.0mm 0 W/m2
05:55 33.4 °F /  0.8 °C 30.7 °F /  -0.7 °C 30in /  1014.6hPa West 6mph /  9.7km/h 11mph /  17.7km/h 90% 0in /  0.0mm 0 W/m2
06:00 33.4 °F /  0.8 °C 30.7 °F /  -0.7 °C 30in /  1014.6hPa NW 6mph /  9.7km/h 8mph /  12.9km/h 90% 0in /  0.0mm 0 W/m2
06:05 33.3 °F /  0.7 °C 30.4 °F /  -0.9 °C 30in /  1014.6hPa West 6mph /  9.7km/h 11mph /  17.7km/h 89% 0in /  0.0mm 0 W/m2
06:10 33.3 °F /  0.7 °C 30.4 °F /  -0.9 °C 30in /  1014.6hPa WSW 2.9mph /  4.7km/h 7mph /  11.3km/h 89% 0in /  0.0mm 0 W/m2
06:15 33.3 °F /  0.7 °C 30.4 °F /  -0.9 °C 30in /  1014.6hPa West 4mph /  6.4km/h 9mph /  14.5km/h 89% 0in /  0.0mm 0 W/m2
06:20 33.3 °F /  0.7 °C 30.4 °F /  -0.9 °C 30in /  1014.6hPa West 8.1mph /  13km/h 8mph /  12.9km/h 89% 0in /  0.0mm 0 W/m2
06:25 33.3 °F /  0.7 °C 30 °F /  -1.1 °C 30in /  1014.6hPa WNW 6.9mph /  11.1km/h 9mph /  14.5km/h 88% 0in /  0.0mm 0 W/m2
06:30 33.1 °F /  0.6 °C 29.8 °F /  -1.2 °C 30in /  1014.6hPa West 2.9mph /  4.7km/h 6mph /  9.7km/h 88% 0in /  0.0mm 0 W/m2
06:35 33.1 °F /  0.6 °C 29.8 °F /  -1.2 °C 30in /  1014.6hPa WSW 4.9mph /  7.9km/h 10mph /  16.1km/h 88% 0in /  0.0mm 0 W/m2
06:40 33.1 °F /  0.6 °C 29.8 °F /  -1.2 °C 30in /  1014.6hPa West 8.1mph /  13km/h 10mph /  16.1km/h 88% 0in /  0.0mm 0 W/m2
06:45 33.1 °F /  0.6 °C 29.8 °F /  -1.2 °C 30in /  1014.6hPa WNW 8.1mph /  13km/h 8mph /  12.9km/h 88% 0in /  0.0mm 0 W/m2
06:50 33.1 °F /  0.6 °C 29.8 °F /  -1.2 °C 30in /  1014.6hPa WNW 4mph /  6.4km/h 7mph /  11.3km/h 88% 0in /  0.0mm 0 W/m2
06:55 33.1 °F /  0.6 °C 29.8 °F /  -1.2 °C 30in /  1014.6hPa WNW 2.9mph /  4.7km/h 6mph /  9.7km/h 88% 0in /  0.0mm 0 W/m2
07:00 32.9 °F /  0.5 °C 29.7 °F /  -1.3 °C 30in /  1014.6hPa West 6mph /  9.7km/h 7mph /  11.3km/h 88% 0in /  0.0mm 0 W/m2
07:05 32.9 °F /  0.5 °C 30 °F /  -1.1 °C 30in /  1014.6hPa WNW 4mph /  6.4km/h 15mph /  24.1km/h 89% 0in /  0.0mm 0 W/m2
07:10 32.9 °F /  0.5 °C 30 °F /  -1.1 °C 30in /  1014.6hPa WNW 2.9mph /  4.7km/h 8mph /  12.9km/h 89% 0in /  0.0mm 0 W/m2
07:15 32.9 °F /  0.5 °C 30 °F /  -1.1 °C 30in /  1014.6hPa West 2mph /  3.2km/h 15mph /  24.1km/h 89% 0in /  0.0mm 0 W/m2
07:20 32.9 °F /  0.5 °C 29.7 °F /  -1.3 °C 30in /  1014.6hPa West 2.9mph /  4.7km/h 9mph /  14.5km/h 88% 0in /  0.0mm 0 W/m2
07:25 32.9 °F /  0.5 °C 29.7 °F /  -1.3 °C 30in /  1014.6hPa NNW 2mph /  3.2km/h 5mph /  8km/h 88% 0in /  0.0mm 0 W/m2
07:30 32.7 °F /  0.4 °C 29.8 °F /  -1.2 °C 30in /  1014.9hPa WSW 2mph /  3.2km/h 10mph /  16.1km/h 89% 0in /  0.0mm 0 W/m2
07:35 32.7 °F /  0.4 °C 29.8 °F /  -1.2 °C 30in /  1014.9hPa West 4mph /  6.4km/h 9mph /  14.5km/h 89% 0in /  0.0mm 0 W/m2
07:40 32.7 °F /  0.4 °C 29.5 °F /  -1.4 °C 30in /  1014.9hPa WSW 4mph /  6.4km/h 10mph /  16.1km/h 88% 0in /  0.0mm 0 W/m2
07:45 32.7 °F /  0.4 °C 29.5 °F /  -1.4 °C 30in /  1014.9hPa West 6mph /  9.7km/h 7mph /  11.3km/h 88% 0in /  0.0mm 0 W/m2
07:50 32.7 °F /  0.4 °C 29.5 °F /  -1.4 °C 30in /  1014.9hPa WNW 2.9mph /  4.7km/h 8mph /  12.9km/h 88% 0in /  0.0mm 0 W/m2
07:55 32.7 °F /  0.4 °C 29.5 °F /  -1.4 °C 30in /  1014.9hPa West 2mph /  3.2km/h 6mph /  9.7km/h 88% 0in /  0.0mm 0 W/m2
08:00 32.7 °F /  0.4 °C 29.5 °F /  -1.4 °C 30in /  1014.9hPa WSW 2mph /  3.2km/h 3mph /  4.8km/h 88% 0in /  0.0mm 0 W/m2
08:05 32.5 °F /  0.3 °C 29.7 °F /  -1.3 °C 30in /  1014.9hPa West 4mph /  6.4km/h 8mph /  12.9km/h 89% 0in /  0.0mm 0 W/m2
08:10 32.5 °F /  0.3 °C 29.7 °F /  -1.3 °C 30in /  1014.9hPa SW 4mph /  6.4km/h 6mph /  9.7km/h 89% 0in /  0.0mm 0 W/m2
08:15 32.5 °F /  0.3 °C 29.7 °F /  -1.3 °C 30in /  1014.9hPa NNW 4.9mph /  7.9km/h 7mph /  11.3km/h 89% 0in /  0.0mm 0 W/m2
08:20 32.5 °F /  0.3 °C 29.7 °F /  -1.3 °C 30in /  1015.2hPa West 6mph /  9.7km/h 7mph /  11.3km/h 89% 0in /  0.0mm 0 W/m2
08:25 32.5 °F /  0.3 °C 29.7 °F /  -1.3 °C 30in /  1015.2hPa WSW 6mph /  9.7km/h 9mph /  14.5km/h 89% 0in /  0.0mm 0 W/m2
08:30 32.4 °F /  0.2 °C 29.1 °F /  -1.6 °C 30in /  1015.2hPa WNW 8.9mph /  14.3km/h 11mph /  17.7km/h 88% 0in /  0.0mm 0 W/m2
08:35 32.4 °F /  0.2 °C 29.1 °F /  -1.6 °C 30in /  1015.2hPa West 2.9mph /  4.7km/h 9mph /  14.5km/h 88% 0in /  0.0mm 5 W/m2
08:40 32.4 °F /  0.2 °C 29.1 °F /  -1.6 °C 30in /  1015.2hPa WNW 4mph /  6.4km/h 7mph /  11.3km/h 88% 0in /  0.0mm 7 W/m2
08:45 32.4 °F /  0.2 °C 29.1 °F /  -1.6 °C 30in /  1015.2hPa West 4mph /  6.4km/h 6mph /  9.7km/h 88% 0in /  0.0mm 11 W/m2
08:50 32.2 °F /  0.1 °C 29.3 °F /  -1.5 °C 30in /  1015.2hPa WSW 4.9mph /  7.9km/h 6mph /  9.7km/h 89% 0in /  0.0mm 14 W/m2
08:55 32.2 °F /  0.1 °C 29.3 °F /  -1.5 °C 30in /  1015.6hPa West 2.9mph /  4.7km/h 3mph /  4.8km/h 89% 0in /  0.0mm 21 W/m2
09:00 32.2 °F /  0.1 °C 29.3 °F /  -1.5 °C 30in /  1015.6hPa NW 2mph /  3.2km/h 4mph /  6.4km/h 89% 0in /  0.0mm 21 W/m2
09:05 32.2 °F /  0.1 °C 29.3 °F /  -1.5 °C 30in /  1015.6hPa West 2.9mph /  4.7km/h 8mph /  12.9km/h 89% 0in /  0.0mm 25 W/m2
09:10 32.2 °F /  0.1 °C 29.3 °F /  -1.5 °C 30in /  1015.6hPa West 4mph /  6.4km/h 7mph /  11.3km/h 89% 0in /  0.0mm 28 W/m2
09:15 32.2 °F /  0.1 °C 29.3 °F /  -1.5 °C 30in /  1015.6hPa WNW 2mph /  3.2km/h 11mph /  17.7km/h 89% 0in /  0.0mm 40 W/m2
09:21 32.2 °F /  0.1 °C 29.3 °F /  -1.5 °C 30in /  1015.9hPa NW 0.9mph /  1.4km/h 4mph /  6.4km/h 89% 0in /  0.0mm 47 W/m2
09:26 32.2 °F /  0.1 °C 29.3 °F /  -1.5 °C 30in /  1015.9hPa West 0.9mph /  1.4km/h 11mph /  17.7km/h 89% 0in /  0.0mm 44 W/m2
09:31 32.2 °F /  0.1 °C 29.3 °F /  -1.5 °C 30in /  1015.9hPa SW 2mph /  3.2km/h 4mph /  6.4km/h 89% 0in /  0.0mm 35 W/m2
09:36 32.2 °F /  0.1 °C 29.3 °F /  -1.5 °C 30in /  1015.9hPa WNW 0.9mph /  1.4km/h 2mph /  3.2km/h 89% 0in /  0.0mm 42 W/m2
09:41 32.2 °F /  0.1 °C 29.3 °F /  -1.5 °C 30in /  1015.9hPa Calm   6mph /  9.7km/h 89% 0in /  0.0mm 42 W/m2
09:46 32.2 °F /  0.1 °C 29.3 °F /  -1.5 °C 30in /  1015.9hPa WNW 2.9mph /  4.7km/h 4mph /  6.4km/h 89% 0in /  0.0mm 56 W/m2
09:51 32.2 °F /  0.1 °C 29.3 °F /  -1.5 °C 30in /  1016.3hPa WNW 0.9mph /  1.4km/h 3mph /  4.8km/h 89% 0in /  0.0mm 49 W/m2
09:56 32.2 °F /  0.1 °C 29.3 °F /  -1.5 °C 30in /  1016.3hPa NW 2mph /  3.2km/h 6mph /  9.7km/h 89% 0in /  0.0mm 44 W/m2
10:01 32.2 °F /  0.1 °C 29.3 °F /  -1.5 °C 30in /  1016.3hPa WNW 4mph /  6.4km/h 9mph /  14.5km/h 89% 0in /  0.0mm 81 W/m2
10:06 32.2 °F /  0.1 °C 29.3 °F /  -1.5 °C 30in /  1016.3hPa NW 4mph /  6.4km/h 7mph /  11.3km/h 89% 0in /  0.0mm 56 W/m2
10:11 32.2 °F /  0.1 °C 29.3 °F /  -1.5 °C 30in /  1016.3hPa West 2.9mph /  4.7km/h 5mph /  8km/h 89% 0in /  0.0mm 44 W/m2
10:16 32.2 °F /  0.1 °C 29.3 °F /  -1.5 °C 30in /  1016.3hPa West 6mph /  9.7km/h 7mph /  11.3km/h 89% 0in /  0.0mm 51 W/m2
10:21 31.8 °F /  -0.1 °C 28.8 °F /  -1.8 °C 30in /  1016.3hPa West 2.9mph /  4.7km/h 8mph /  12.9km/h 88% 0in /  0.0mm 51 W/m2
10:26 31.8 °F /  -0.1 °C 28.9 °F /  -1.7 °C 30in /  1016.3hPa WNW 2.9mph /  4.7km/h 9mph /  14.5km/h 89% 0in /  0.0mm 62 W/m2
10:31 31.8 °F /  -0.1 °C 28.9 °F /  -1.7 °C 30in /  1016.3hPa WNW 2.9mph /  4.7km/h 10mph /  16.1km/h 89% 0in /  0.0mm 70 W/m2
10:36 31.8 °F /  -0.1 °C 28.9 °F /  -1.7 °C 30in /  1016.3hPa West 2mph /  3.2km/h 7mph /  11.3km/h 89% 0in /  0.0mm 81 W/m2
10:41 32 °F /  0 °C 29.1 °F /  -1.6 °C 30in /  1016.3hPa West 2.9mph /  4.7km/h 9mph /  14.5km/h 89% 0in /  0.0mm 69 W/m2
10:46 32.2 °F /  0.1 °C 29.3 °F /  -1.5 °C 30in /  1016.3hPa WNW 0.9mph /  1.4km/h 3mph /  4.8km/h 89% 0in /  0.0mm 98 W/m2
10:51 32.4 °F /  0.2 °C 29.5 °F /  -1.4 °C 30in /  1016.3hPa West 2mph /  3.2km/h 6mph /  9.7km/h 89% 0in /  0.0mm 120 W/m2
10:56 32.4 °F /  0.2 °C 29.5 °F /  -1.4 °C 30in /  1016.3hPa WNW 0.9mph /  1.4km/h 4mph /  6.4km/h 89% 0in /  0.0mm 111 W/m2
11:01 32.5 °F /  0.3 °C 29.7 °F /  -1.3 °C 30in /  1016.6hPa WNW 4mph /  6.4km/h 8mph /  12.9km/h 89% 0in /  0.0mm 97 W/m2
11:06 32.5 °F /  0.3 °C 29.3 °F /  -1.5 °C 30in /  1016.6hPa WNW 2.9mph /  4.7km/h 6mph /  9.7km/h 88% 0in /  0.0mm 111 W/m2
11:11 32.5 °F /  0.3 °C 29.3 °F /  -1.5 °C 30in /  1016.6hPa WNW 6.9mph /  11.1km/h 7mph /  11.3km/h 88% 0in /  0.0mm 105 W/m2
11:16 32.5 °F /  0.3 °C 29.3 °F /  -1.5 °C 30in /  1016.6hPa WNW 0.9mph /  1.4km/h 8mph /  12.9km/h 88% 0in /  0.0mm 113 W/m2
11:21 32.5 °F /  0.3 °C 29.3 °F /  -1.5 °C 30in /  1016.6hPa WNW 6.9mph /  11.1km/h 9mph /  14.5km/h 88% 0in /  0.0mm 137 W/m2
11:26 32.5 °F /  0.3 °C 29.1 °F /  -1.6 °C 30in /  1016.6hPa WNW 8.1mph /  13km/h 11mph /  17.7km/h 87% 0in /  0.0mm 142 W/m2
11:31 32.4 °F /  0.2 °C 28.9 °F /  -1.7 °C 30in /  1016.6hPa WNW 2.9mph /  4.7km/h 10mph /  16.1km/h 87% 0in /  0.0mm 116 W/m2
11:36 32.5 °F /  0.3 °C 29.3 °F /  -1.5 °C 30in /  1016.6hPa NNW 2.9mph /  4.7km/h 11mph /  17.7km/h 88% 0in /  0.0mm 125 W/m2
11:41 32.4 °F /  0.2 °C 28.9 °F /  -1.7 °C 30in /  1016.6hPa WNW 6.9mph /  11.1km/h 10mph /  16.1km/h 87% 0in /  0.0mm 121 W/m2
11:46 32.5 °F /  0.3 °C 29.3 °F /  -1.5 °C 30in /  1016.6hPa WNW 2.9mph /  4.7km/h 10mph /  16.1km/h 88% 0in /  0.0mm 123 W/m2
11:51 32.5 °F /  0.3 °C 29.3 °F /  -1.5 °C 30in /  1016.6hPa SW 6.9mph /  11.1km/h 8mph /  12.9km/h 88% 0in /  0.0mm 162 W/m2
11:56 32.7 °F /  0.4 °C 29.5 °F /  -1.4 °C 30in /  1016.6hPa WSW 2mph /  3.2km/h 10mph /  16.1km/h 88% 0in /  0.0mm 169 W/m2
12:01 32.9 °F /  0.5 °C 29.7 °F /  -1.3 °C 30in /  1016.3hPa West 2.9mph /  4.7km/h 6mph /  9.7km/h 88% 0in /  0.0mm 158 W/m2
12:06 33.1 °F /  0.6 °C 29.7 °F /  -1.3 °C 30in /  1016.3hPa West 6mph /  9.7km/h 9mph /  14.5km/h 87% 0in /  0.0mm 156 W/m2
12:11 33.1 °F /  0.6 °C 29.8 °F /  -1.2 °C 30in /  1016.3hPa WNW 8.9mph /  14.3km/h 9mph /  14.5km/h 88% 0in /  0.0mm 153 W/m2
12:16 33.1 °F /  0.6 °C 29.7 °F /  -1.3 °C 30in /  1016.3hPa WNW 8.1mph /  13km/h 10mph /  16.1km/h 87% 0in /  0.0mm 158 W/m2
12:21 33.3 °F /  0.7 °C 29.8 °F /  -1.2 °C 30in /  1016.3hPa West 4mph /  6.4km/h 11mph /  17.7km/h 87% 0in /  0.0mm 137 W/m2
12:26 33.3 °F /  0.7 °C 29.8 °F /  -1.2 °C 30in /  1016.3hPa WSW 8.1mph /  13km/h 11mph /  17.7km/h 87% 0in /  0.0mm 142 W/m2
12:31 33.3 °F /  0.7 °C 29.8 °F /  -1.2 °C 30in /  1016.3hPa West 6mph /  9.7km/h 8mph /  12.9km/h 87% 0in /  0.0mm 174 W/m2
12:36 33.4 °F /  0.8 °C 30 °F /  -1.1 °C 30in /  1016.3hPa WNW 11mph /  17.7km/h 11mph /  17.7km/h 87% 0in /  0.0mm 206 W/m2
12:41 33.4 °F /  0.8 °C 29.7 °F /  -1.3 °C 30in /  1016.3hPa West 6.9mph /  11.1km/h 12mph /  19.3km/h 86% 0in /  0.0mm 178 W/m2
12:46 33.4 °F /  0.8 °C 29.7 °F /  -1.3 °C 30in /  1016.3hPa WSW 6.9mph /  11.1km/h 9mph /  14.5km/h 86% 0in /  0.0mm 149 W/m2
12:51 33.4 °F /  0.8 °C 29.7 °F /  -1.3 °C 30in /  1015.9hPa WNW 2.9mph /  4.7km/h 15mph /  24.1km/h 86% 0in /  0.0mm 132 W/m2
12:56 33.6 °F /  0.9 °C 29.8 °F /  -1.2 °C 30in /  1016.3hPa WNW 2.9mph /  4.7km/h 8mph /  12.9km/h 86% 0in /  0.0mm 142 W/m2
13:01 33.6 °F /  0.9 °C 29.8 °F /  -1.2 °C 30in /  1016.3hPa WSW 2.9mph /  4.7km/h 14mph /  22.5km/h 86% 0in /  0.0mm 137 W/m2
13:06 34 °F /  1.1 °C 30.2 °F /  -1 °C 30in /  1016.3hPa West 4mph /  6.4km/h 9mph /  14.5km/h 86% 0in /  0.0mm 130 W/m2
13:11 34.2 °F /  1.2 °C 30.4 °F /  -0.9 °C 30in /  1015.9hPa West 8.1mph /  13km/h 12mph /  19.3km/h 86% 0in /  0.0mm 120 W/m2
13:16 34.2 °F /  1.2 °C 30.2 °F /  -1 °C 30in /  1015.9hPa WNW 4mph /  6.4km/h 6mph /  9.7km/h 85% 0in /  0.0mm 98 W/m2
13:21 34.2 °F /  1.2 °C 30.2 °F /  -1 °C 30in /  1015.9hPa WNW 4.9mph /  7.9km/h 10mph /  16.1km/h 85% 0in /  0.0mm 91 W/m2
13:26 34.2 °F /  1.2 °C 30.2 °F /  -1 °C 30in /  1015.9hPa WNW 4mph /  6.4km/h 8mph /  12.9km/h 85% 0in /  0.0mm 109 W/m2
13:31 34.3 °F /  1.3 °C 30.4 °F /  -0.9 °C 30in /  1015.9hPa NW 4mph /  6.4km/h 10mph /  16.1km/h 85% 0in /  0.0mm 127 W/m2
13:36 34.5 °F /  1.4 °C 30.6 °F /  -0.8 °C 30in /  1015.9hPa WNW 6.9mph /  11.1km/h 9mph /  14.5km/h 85% 0in /  0.0mm 134 W/m2
13:41 34.9 °F /  1.6 °C 30.9 °F /  -0.6 °C 30in /  1015.9hPa West 2.9mph /  4.7km/h 10mph /  16.1km/h 85% 0in /  0.0mm 128 W/m2
13:46 35.1 °F /  1.7 °C 30.7 °F /  -0.7 °C 30in /  1015.9hPa West 4mph /  6.4km/h 7mph /  11.3km/h 84% 0in /  0.0mm 134 W/m2
13:51 35.2 °F /  1.8 °C 30.9 °F /  -0.6 °C 30in /  1015.9hPa WSW 6mph /  9.7km/h 9mph /  14.5km/h 84% 0in /  0.0mm 137 W/m2
13:56 35.4 °F /  1.9 °C 31.1 °F /  -0.5 °C 30in /  1015.9hPa WSW 6.9mph /  11.1km/h 9mph /  14.5km/h 84% 0in /  0.0mm 130 W/m2
14:01 35.6 °F /  2 °C 30.9 °F /  -0.6 °C 30in /  1015.9hPa WSW 2.9mph /  4.7km/h 7mph /  11.3km/h 83% 0in /  0.0mm 127 W/m2
14:06 35.6 °F /  2 °C 30.9 °F /  -0.6 °C 30in /  1016.3hPa West 6mph /  9.7km/h 9mph /  14.5km/h 83% 0in /  0.0mm 123 W/m2
14:11 35.8 °F /  2.1 °C 31.1 °F /  -0.5 °C 30in /  1015.9hPa WNW 4.9mph /  7.9km/h 10mph /  16.1km/h 83% 0in /  0.0mm 121 W/m2
14:16 35.8 °F /  2.1 °C 31.1 °F /  -0.5 °C 30in /  1015.9hPa West 4mph /  6.4km/h 9mph /  14.5km/h 83% 0in /  0.0mm 127 W/m2
14:21 35.8 °F /  2.1 °C 31.1 °F /  -0.5 °C 30in /  1015.9hPa West 8.9mph /  14.3km/h 11mph /  17.7km/h 83% 0in /  0.0mm 111 W/m2
14:26 35.8 °F /  2.1 °C 31.1 °F /  -0.5 °C 30in /  1015.9hPa West 6.9mph /  11.1km/h 10mph /  16.1km/h 83% 0in /  0.0mm 91 W/m2
14:31 35.8 °F /  2.1 °C 31.1 °F /  -0.5 °C 30in /  1015.9hPa West 2mph /  3.2km/h 7mph /  11.3km/h 83% 0in /  0.0mm 88 W/m2
14:36 35.8 °F /  2.1 °C 31.1 °F /  -0.5 °C 30in /  1015.9hPa West 6mph /  9.7km/h 9mph /  14.5km/h 83% 0in /  0.0mm 77 W/m2
14:41 35.8 °F /  2.1 °C 31.1 °F /  -0.5 °C 30in /  1016.3hPa NW 4mph /  6.4km/h 7mph /  11.3km/h 83% 0in /  0.0mm 76 W/m2
14:46 35.6 °F /  2 °C 30.7 °F /  -0.7 °C 30in /  1016.3hPa WNW 2.9mph /  4.7km/h 9mph /  14.5km/h 82% 0in /  0.0mm 86 W/m2
14:51 35.4 °F /  1.9 °C 30.7 °F /  -0.7 °C 30in /  1016.3hPa West 6mph /  9.7km/h 7mph /  11.3km/h 83% 0in /  0.0mm 91 W/m2
14:56 35.4 °F /  1.9 °C 30.7 °F /  -0.7 °C 30in /  1016.3hPa West 6.9mph /  11.1km/h 8mph /  12.9km/h 83% 0in /  0.0mm 86 W/m2
15:01 35.4 °F /  1.9 °C 31.1 °F /  -0.5 °C 30in /  1016.3hPa West 4mph /  6.4km/h 8mph /  12.9km/h 84% 0in /  0.0mm 65 W/m2
15:06 35.4 °F /  1.9 °C 30.7 °F /  -0.7 °C 30in /  1016.3hPa WNW 8.1mph /  13km/h 9mph /  14.5km/h 83% 0in /  0.0mm 47 W/m2
15:11 35.2 °F /  1.8 °C 30.6 °F /  -0.8 °C 30in /  1016.3hPa WSW 4mph /  6.4km/h 10mph /  16.1km/h 83% 0in /  0.0mm 40 W/m2
15:16 35.2 °F /  1.8 °C 30.9 °F /  -0.6 °C 30in /  1016.3hPa WNW 2.9mph /  4.7km/h 6mph /  9.7km/h 84% 0in /  0.0mm 46 W/m2
15:21 35.2 °F /  1.8 °C 30.9 °F /  -0.6 °C 30in /  1016.3hPa WSW 2.9mph /  4.7km/h 10mph /  16.1km/h 84% 0in /  0.0mm 47 W/m2
15:26 35.2 °F /  1.8 °C 30.9 °F /  -0.6 °C 30in /  1016.3hPa WNW 2mph /  3.2km/h 7mph /  11.3km/h 84% 0in /  0.0mm 46 W/m2
15:31 35.2 °F /  1.8 °C 30.6 °F /  -0.8 °C 30in /  1016.3hPa WNW 2mph /  3.2km/h 7mph /  11.3km/h 83% 0in /  0.0mm 39 W/m2
15:37 35.1 °F /  1.7 °C 30.7 °F /  -0.7 °C 30in /  1016.3hPa Calm   4mph /  6.4km/h 84% 0in /  0.0mm 35 W/m2
15:42 35.1 °F /  1.7 °C 30.7 °F /  -0.7 °C 30in /  1016.3hPa Calm   3mph /  4.8km/h 84% 0in /  0.0mm 28 W/m2
15:47 35.1 °F /  1.7 °C 30.7 °F /  -0.7 °C 30in /  1016.3hPa Calm   4mph /  6.4km/h 84% 0in /  0.0mm 26 W/m2
15:52 34.9 °F /  1.6 °C 30.6 °F /  -0.8 °C 30in /  1016.3hPa WNW 0.9mph /  1.4km/h 4mph /  6.4km/h 84% 0in /  0.0mm 26 W/m2
15:57 34.9 °F /  1.6 °C 30.9 °F /  -0.6 °C 30in /  1016.3hPa SE 2mph /  3.2km/h 3mph /  4.8km/h 85% 0in /  0.0mm 33 W/m2
16:02 34.7 °F /  1.5 °C 30.7 °F /  -0.7 °C 30in /  1016.6hPa West 0.9mph /  1.4km/h 2mph /  3.2km/h 85% 0in /  0.0mm 40 W/m2
16:07 34.7 °F /  1.5 °C 30.7 °F /  -0.7 °C 30in /  1016.6hPa Calm   1mph /  1.6km/h 85% 0in /  0.0mm 40 W/m2
16:12 34.7 °F /  1.5 °C 30.7 °F /  -0.7 °C 30in /  1016.6hPa NNW 2mph /  3.2km/h 2mph /  3.2km/h 85% 0in /  0.0mm 37 W/m2
16:17 34.5 °F /  1.4 °C 30.6 °F /  -0.8 °C 30in /  1016.6hPa NW 0.9mph /  1.4km/h 6mph /  9.7km/h 85% 0in /  0.0mm 19 W/m2
16:22 34.5 °F /  1.4 °C 30.7 °F /  -0.7 °C 30in /  1016.6hPa WSW 4mph /  6.4km/h 5mph /  8km/h 86% 0in /  0.0mm 16 W/m2
16:27 34.5 °F /  1.4 °C 30.6 °F /  -0.8 °C 30in /  1016.6hPa West 4mph /  6.4km/h 7mph /  11.3km/h 85% 0in /  0.0mm 11 W/m2
16:32 34.5 °F /  1.4 °C 30.6 °F /  -0.8 °C 30in /  1016.9hPa WNW 0.9mph /  1.4km/h 3mph /  4.8km/h 85% 0in /  0.0mm 9 W/m2
16:37 34.5 °F /  1.4 °C 30.6 °F /  -0.8 °C 30in /  1016.9hPa WSW 4mph /  6.4km/h 7mph /  11.3km/h 85% 0in /  0.0mm 7 W/m2
16:42 34.3 °F /  1.3 °C 30.4 °F /  -0.9 °C 30in /  1016.9hPa West 2mph /  3.2km/h 3mph /  4.8km/h 85% 0in /  0.0mm 5 W/m2
16:47 34.3 °F /  1.3 °C 30.4 °F /  -0.9 °C 30in /  1016.9hPa West 4mph /  6.4km/h 6mph /  9.7km/h 85% 0in /  0.0mm 5 W/m2
16:52 34.3 °F /  1.3 °C 30.4 °F /  -0.9 °C 30in /  1016.9hPa WSW 0.9mph /  1.4km/h 6mph /  9.7km/h 85% 0in /  0.0mm 5 W/m2
16:57 34.3 °F /  1.3 °C 30.6 °F /  -0.8 °C 30in /  1016.9hPa West 4mph /  6.4km/h 8mph /  12.9km/h 86% 0in /  0.0mm 0 W/m2
17:02 34.3 °F /  1.3 °C 30.6 °F /  -0.8 °C 30in /  1016.9hPa WNW 2.9mph /  4.7km/h 3mph /  4.8km/h 86% 0in /  0.0mm 0 W/m2
17:07 34.3 °F /  1.3 °C 30.6 °F /  -0.8 °C 30in /  1017.3hPa WSW 2.9mph /  4.7km/h 8mph /  12.9km/h 86% 0in /  0.0mm 0 W/m2
17:12 34.3 °F /  1.3 °C 30.6 °F /  -0.8 °C 30in /  1017.3hPa West 2mph /  3.2km/h 7mph /  11.3km/h 86% 0in /  0.0mm 0 W/m2
17:17 34.3 °F /  1.3 °C 30.6 °F /  -0.8 °C 30in /  1017.3hPa West 2.9mph /  4.7km/h 4mph /  6.4km/h 86% 0in /  0.0mm 0 W/m2
17:22 34.2 °F /  1.2 °C 30.4 °F /  -0.9 °C 30in /  1017.3hPa WSW 4mph /  6.4km/h 7mph /  11.3km/h 86% 0in /  0.0mm 0 W/m2
17:27 34.2 °F /  1.2 °C 30.4 °F /  -0.9 °C 30in /  1017.3hPa West 6mph /  9.7km/h 6mph /  9.7km/h 86% 0in /  0.0mm 0 W/m2
17:32 34.2 °F /  1.2 °C 30.7 °F /  -0.7 °C 30in /  1017.3hPa West 0.9mph /  1.4km/h 4mph /  6.4km/h 87% 0in /  0.0mm 0 W/m2
17:37 34 °F /  1.1 °C 30.6 °F /  -0.8 °C 30in /  1017.3hPa WNW 2mph /  3.2km/h 5mph /  8km/h 87% 0in /  0.0mm 0 W/m2
17:42 34 °F /  1.1 °C 30.6 °F /  -0.8 °C 30in /  1017.3hPa West 2.9mph /  4.7km/h 3mph /  4.8km/h 87% 0in /  0.0mm 0 W/m2
17:47 34 °F /  1.1 °C 30.6 °F /  -0.8 °C 30in /  1017.3hPa Calm   2mph /  3.2km/h 87% 0in /  0.0mm 0 W/m2
17:52 34 °F /  1.1 °C 30.6 °F /  -0.8 °C 30in /  1017.3hPa WNW 0.9mph /  1.4km/h 6mph /  9.7km/h 87% 0in /  0.0mm 0 W/m2
17:57 33.8 °F /  1 °C 30.4 °F /  -0.9 °C 30.1in /  1017.6hPa WNW 2.9mph /  4.7km/h 3mph /  4.8km/h 87% 0in /  0.0mm 0 W/m2
18:02 33.6 °F /  0.9 °C 30.2 °F /  -1 °C 30.1in /  1017.6hPa WNW 2.9mph /  4.7km/h 4mph /  6.4km/h 87% 0in /  0.0mm 0 W/m2
18:07 33.6 °F /  0.9 °C 30.2 °F /  -1 °C 30.1in /  1017.6hPa Calm   2mph /  3.2km/h 87% 0in /  0.0mm 0 W/m2
18:12 33.6 °F /  0.9 °C 30.4 °F /  -0.9 °C 30.1in /  1017.6hPa WNW 2mph /  3.2km/h 3mph /  4.8km/h 88% 0in /  0.0mm 0 W/m2
18:17 33.6 °F /  0.9 °C 30.4 °F /  -0.9 °C 30.1in /  1017.6hPa West 0.9mph /  1.4km/h 3mph /  4.8km/h 88% 0in /  0.0mm 0 W/m2
18:29 33.6 °F /  0.9 °C 30.4 °F /  -0.9 °C 30.1in /  1017.6hPa WNW 2mph /  3.2km/h 8mph /  12.9km/h 88% 0in /  0.0mm 0 W/m2
18:34 33.6 °F /  0.9 °C 30.4 °F /  -0.9 °C 30.1in /  1017.6hPa Calm   1mph /  1.6km/h 88% 0in /  0.0mm 0 W/m2
18:39 33.4 °F /  0.8 °C 30.2 °F /  -1 °C 30.1in /  1018.0hPa WSW 0.9mph /  1.4km/h 3mph /  4.8km/h 88% 0in /  0.0mm 0 W/m2
18:44 33.6 °F /  0.9 °C 30.4 °F /  -0.9 °C 30.1in /  1018.0hPa WSW 2.9mph /  4.7km/h 3mph /  4.8km/h 88% 0in /  0.0mm 0 W/m2
18:49 33.4 °F /  0.8 °C 30.2 °F /  -1 °C 30.1in /  1018.0hPa NW 0.9mph /  1.4km/h 2mph /  3.2km/h 88% 0in /  0.0mm 0 W/m2
18:54 33.4 °F /  0.8 °C 30.2 °F /  -1 °C 30.1in /  1018.0hPa Calm   1mph /  1.6km/h 88% 0in /  0.0mm 0 W/m2
18:59 33.4 °F /  0.8 °C 30.2 °F /  -1 °C 30.1in /  1018.0hPa Calm     88% 0in /  0.0mm 0 W/m2
19:04 33.4 °F /  0.8 °C 30.2 °F /  -1 °C 30.1in /  1018.0hPa WNW 0.9mph /  1.4km/h 3mph /  4.8km/h 88% 0in /  0.0mm 0 W/m2
19:09 33.4 °F /  0.8 °C 30.2 °F /  -1 °C 30.1in /  1018.0hPa Calm   4mph /  6.4km/h 88% 0in /  0.0mm 0 W/m2
19:14 33.4 °F /  0.8 °C 30.2 °F /  -1 °C 30.1in /  1018.0hPa WSW 4mph /  6.4km/h 6mph /  9.7km/h 88% 0in /  0.0mm 0 W/m2
19:19 33.4 °F /  0.8 °C 30.2 °F /  -1 °C 30.1in /  1018.0hPa WSW 2.9mph /  4.7km/h 4mph /  6.4km/h 88% 0in /  0.0mm 0 W/m2
19:24 33.4 °F /  0.8 °C 30.2 °F /  -1 °C 30.1in /  1018.0hPa NW 6.9mph /  11.1km/h 7mph /  11.3km/h 88% 0in /  0.0mm 0 W/m2
19:29 33.6 °F /  0.9 °C 30.4 °F /  -0.9 °C 30.1in /  1018.0hPa WNW 0.9mph /  1.4km/h 5mph /  8km/h 88% 0in /  0.0mm 0 W/m2
19:34 33.6 °F /  0.9 °C 30.4 °F /  -0.9 °C 30.1in /  1018.0hPa West 2mph /  3.2km/h 3mph /  4.8km/h 88% 0in /  0.0mm 0 W/m2
19:39 33.6 °F /  0.9 °C 30.4 °F /  -0.9 °C 30.1in /  1018.0hPa NW 2mph /  3.2km/h 6mph /  9.7km/h 88% 0in /  0.0mm 0 W/m2
19:44 33.6 °F /  0.9 °C 30.4 °F /  -0.9 °C 30.1in /  1018.0hPa WNW 2mph /  3.2km/h 6mph /  9.7km/h 88% 0in /  0.0mm 0 W/m2
19:49 33.6 °F /  0.9 °C 30.4 °F /  -0.9 °C 30.1in /  1018.0hPa WNW 2.9mph /  4.7km/h 5mph /  8km/h 88% 0in /  0.0mm 0 W/m2
19:54 33.4 °F /  0.8 °C 30.2 °F /  -1 °C 30.1in /  1018.0hPa West 6.9mph /  11.1km/h 7mph /  11.3km/h 88% 0in /  0.0mm 0 W/m2
19:59 33.4 °F /  0.8 °C 30.6 °F /  -0.8 °C 30.1in /  1018.0hPa West 6mph /  9.7km/h 8mph /  12.9km/h 89% 0in /  0.0mm 0 W/m2
20:04 33.4 °F /  0.8 °C 30.6 °F /  -0.8 °C 30.1in /  1018.0hPa West 6mph /  9.7km/h 11mph /  17.7km/h 89% 0in /  0.0mm 0 W/m2
20:09 33.4 °F /  0.8 °C 30.6 °F /  -0.8 °C 30.1in /  1018.0hPa WNW 4.9mph /  7.9km/h 7mph /  11.3km/h 89% 0in /  0.0mm 0 W/m2
20:14 33.4 °F /  0.8 °C 30.6 °F /  -0.8 °C 30.1in /  1018.0hPa WNW 2.9mph /  4.7km/h 11mph /  17.7km/h 89% 0in /  0.0mm 0 W/m2
20:19 33.6 °F /  0.9 °C 30.7 °F /  -0.7 °C 30.1in /  1018.0hPa WNW 2.9mph /  4.7km/h 7mph /  11.3km/h 89% 0in /  0.0mm 0 W/m2
20:24 33.6 °F /  0.9 °C 30.7 °F /  -0.7 °C 30.1in /  1018.3hPa West 0.9mph /  1.4km/h 7mph /  11.3km/h 89% 0in /  0.0mm 0 W/m2
20:29 33.6 °F /  0.9 °C 30.7 °F /  -0.7 °C 30.1in /  1018.3hPa West 2.9mph /  4.7km/h 5mph /  8km/h 89% 0in /  0.0mm 0 W/m2
20:34 33.6 °F /  0.9 °C 30.7 °F /  -0.7 °C 30.1in /  1018.3hPa NW 2.9mph /  4.7km/h 4mph /  6.4km/h 89% 0in /  0.0mm 0 W/m2
20:39 33.6 °F /  0.9 °C 30.7 °F /  -0.7 °C 30.1in /  1018.3hPa West 2.9mph /  4.7km/h 4mph /  6.4km/h 89% 0in /  0.0mm 0 W/m2
20:44 33.6 °F /  0.9 °C 30.7 °F /  -0.7 °C 30.1in /  1018.3hPa WNW 2mph /  3.2km/h 4mph /  6.4km/h 89% 0in /  0.0mm 0 W/m2
20:49 33.6 °F /  0.9 °C 30.7 °F /  -0.7 °C 30.1in /  1018.3hPa WSW 0.9mph /  1.4km/h 7mph /  11.3km/h 89% 0in /  0.0mm 0 W/m2
20:54 33.8 °F /  1 °C 30.9 °F /  -0.6 °C 30.1in /  1018.3hPa WNW 2mph /  3.2km/h 3mph /  4.8km/h 89% 0in /  0.0mm 0 W/m2
20:59 33.6 °F /  0.9 °C 30.7 °F /  -0.7 °C 30.1in /  1018.3hPa NW 2mph /  3.2km/h 3mph /  4.8km/h 89% 0in /  0.0mm 0 W/m2
21:04 33.8 °F /  1 °C 30.9 °F /  -0.6 °C 30.1in /  1018.3hPa WNW 0.9mph /  1.4km/h 4mph /  6.4km/h 89% 0in /  0.0mm 0 W/m2
21:09 33.8 °F /  1 °C 31.1 °F /  -0.5 °C 30.1in /  1018.3hPa NNW 2.9mph /  4.7km/h 3mph /  4.8km/h 90% 0in /  0.0mm 0 W/m2
21:14 33.8 °F /  1 °C 31.1 °F /  -0.5 °C 30.1in /  1018.3hPa NW 2mph /  3.2km/h 3mph /  4.8km/h 90% 0in /  0.0mm 0 W/m2
21:19 33.8 °F /  1 °C 30.9 °F /  -0.6 °C 30.1in /  1018.3hPa NW 0.9mph /  1.4km/h 4mph /  6.4km/h 89% 0in /  0.0mm 0 W/m2
21:24 33.8 °F /  1 °C 30.9 °F /  -0.6 °C 30.1in /  1018.3hPa WSW 2.9mph /  4.7km/h 3mph /  4.8km/h 89% 0in /  0.0mm 0 W/m2
21:29 33.8 °F /  1 °C 31.1 °F /  -0.5 °C 30.1in /  1018.6hPa WNW 2mph /  3.2km/h 8mph /  12.9km/h 90% 0in /  0.0mm 0 W/m2
21:34 33.8 °F /  1 °C 31.1 °F /  -0.5 °C 30.1in /  1018.6hPa WNW 2mph /  3.2km/h 6mph /  9.7km/h 90% 0in /  0.0mm 0 W/m2
21:39 33.6 °F /  0.9 °C 30.9 °F /  -0.6 °C 30.1in /  1018.6hPa WNW 2mph /  3.2km/h 4mph /  6.4km/h 90% 0in /  0.0mm 0 W/m2
21:44 33.6 °F /  0.9 °C 30.9 °F /  -0.6 °C 30.1in /  1018.6hPa NW 0.9mph /  1.4km/h 6mph /  9.7km/h 90% 0in /  0.0mm 0 W/m2
21:49 33.8 °F /  1 °C 31.1 °F /  -0.5 °C 30.1in /  1018.6hPa WNW 0.9mph /  1.4km/h 3mph /  4.8km/h 90% 0in /  0.0mm 0 W/m2
21:54 33.8 °F /  1 °C 31.1 °F /  -0.5 °C 30.1in /  1018.6hPa WSW 2.9mph /  4.7km/h 6mph /  9.7km/h 90% 0in /  0.0mm 0 W/m2
21:59 33.8 °F /  1 °C 31.1 °F /  -0.5 °C 30.1in /  1018.6hPa WNW 0.9mph /  1.4km/h 3mph /  4.8km/h 90% 0in /  0.0mm 0 W/m2
22:04 33.8 °F /  1 °C 31.1 °F /  -0.5 °C 30.1in /  1019.0hPa NW 0.9mph /  1.4km/h 4mph /  6.4km/h 90% 0in /  0.0mm 0 W/m2
22:09 33.8 °F /  1 °C 31.1 °F /  -0.5 °C 30.1in /  1018.6hPa WNW 0.9mph /  1.4km/h 3mph /  4.8km/h 90% 0in /  0.0mm 0 W/m2
22:14 33.8 °F /  1 °C 31.1 °F /  -0.5 °C 30.1in /  1019.0hPa West 2mph /  3.2km/h 2mph /  3.2km/h 90% 0in /  0.0mm 0 W/m2
22:19 33.8 °F /  1 °C 31.5 °F /  -0.3 °C 30.1in /  1019.0hPa West 0.9mph /  1.4km/h 6mph /  9.7km/h 91% 0in /  0.0mm 0 W/m2
22:24 34 °F /  1.1 °C 31.6 °F /  -0.2 °C 30.1in /  1019.0hPa West 2mph /  3.2km/h 4mph /  6.4km/h 91% 0in /  0.0mm 0 W/m2
22:29 34 °F /  1.1 °C 31.6 °F /  -0.2 °C 30.1in /  1019.0hPa West 2.9mph /  4.7km/h 6mph /  9.7km/h 91% 0in /  0.0mm 0 W/m2
22:35 34 °F /  1.1 °C 31.6 °F /  -0.2 °C 30.1in /  1019.0hPa West 2mph /  3.2km/h 2mph /  3.2km/h 91% 0in /  0.0mm 0 W/m2
22:40 34 °F /  1.1 °C 31.6 °F /  -0.2 °C 30.1in /  1019.0hPa WNW 2mph /  3.2km/h 3mph /  4.8km/h 91% 0in /  0.0mm 0 W/m2
22:45 34 °F /  1.1 °C 31.6 °F /  -0.2 °C 30.1in /  1019.0hPa WNW 0.9mph /  1.4km/h 3mph /  4.8km/h 91% 0in /  0.0mm 0 W/m2
22:50 34.2 °F /  1.2 °C 31.8 °F /  -0.1 °C 30.1in /  1019.0hPa WNW 2mph /  3.2km/h 3mph /  4.8km/h 91% 0in /  0.0mm 0 W/m2
22:55 34.2 °F /  1.2 °C 31.8 °F /  -0.1 °C 30.1in /  1019.0hPa WNW 0.9mph /  1.4km/h 3mph /  4.8km/h 91% 0in /  0.0mm 0 W/m2
23:00 34.2 °F /  1.2 °C 31.8 °F /  -0.1 °C 30.1in /  1019.0hPa WNW 2mph /  3.2km/h 3mph /  4.8km/h 91% 0in /  0.0mm 0 W/m2
23:05 34.2 °F /  1.2 °C 31.8 °F /  -0.1 °C 30.1in /  1019.0hPa West 2mph /  3.2km/h 2mph /  3.2km/h 91% 0in /  0.0mm 0 W/m2
23:10 34.2 °F /  1.2 °C 31.8 °F /  -0.1 °C 30.1in /  1019.0hPa West 2mph /  3.2km/h 3mph /  4.8km/h 91% 0in /  0.0mm 0 W/m2
23:15 34.2 °F /  1.2 °C 31.8 °F /  -0.1 °C 30.1in /  1019.0hPa West 2mph /  3.2km/h 3mph /  4.8km/h 91% 0in /  0.0mm 0 W/m2
23:20 34.2 °F /  1.2 °C 31.8 °F /  -0.1 °C 30.1in /  1019.0hPa West 2mph /  3.2km/h 3mph /  4.8km/h 91% 0in /  0.0mm 0 W/m2
23:25 34.2 °F /  1.2 °C 31.8 °F /  -0.1 °C 30.1in /  1019.0hPa WNW 0.9mph /  1.4km/h 2mph /  3.2km/h 91% 0in /  0.0mm 0 W/m2
23:30 34.2 °F /  1.2 °C 31.8 °F /  -0.1 °C 30.1in /  1019.0hPa West 2mph /  3.2km/h 2mph /  3.2km/h 91% 0in /  0.0mm 0 W/m2
23:35 34.3 °F /  1.3 °C 32 °F /  0 °C 30.1in /  1019.0hPa West 0.9mph /  1.4km/h 2mph /  3.2km/h 91% 0in /  0.0mm 0 W/m2
23:40 34.3 °F /  1.3 °C 32 °F /  0 °C 30.1in /  1019.0hPa West 2mph /  3.2km/h 2mph /  3.2km/h 91% 0in /  0.0mm 0 W/m2
23:45 34.3 °F /  1.3 °C 32 °F /  0 °C 30.1in /  1019.0hPa West 0.9mph /  1.4km/h 1mph /  1.6km/h 91% 0in /  0.0mm 0 W/m2
23:50 34.3 °F /  1.3 °C 32 °F /  0 °C 30.1in /  1019.0hPa Calm     91% 0in /  0.0mm 0 W/m2
23:55 34.3 °F /  1.3 °C 32 °F /  0 °C 30.1in /  1019.0hPa Calm   1mph /  1.6km/h 91% 0in /  0.0mm 0 W/m2
Juneau County Weather
Compliments of Weather Underground - 4 mb